sensor_id;sensor_type;location;lat;lon;timestamp;temperature;humidity
14529;DHT22;7351;51.194;4.098;2022-10-26T00:01:52;14.90;99.90
14529;DHT22;7351;51.194;4.098;2022-10-26T00:04:19;14.80;99.90
14529;DHT22;7351;51.194;4.098;2022-10-26T00:06:48;14.80;99.90
14529;DHT22;7351;51.194;4.098;2022-10-26T00:09:15;14.80;99.90
14529;DHT22;7351;51.194;4.098;2022-10-26T00:11:42;14.80;99.90
14529;DHT22;7351;51.194;4.098;2022-10-26T00:14:09;14.80;99.90
14529;DHT22;7351;51.194;4.098;2022-10-26T00:16:36;14.80;99.90
14529;DHT22;7351;51.194;4.098;2022-10-26T00:19:03;14.70;99.90
14529;DHT22;7351;51.194;4.098;2022-10-26T00:21:31;14.70;99.90
14529;DHT22;7351;51.194;4.098;2022-10-26T00:24:00;14.70;99.90
14529;DHT22;7351;51.194;4.098;2022-10-26T00:26:27;14.80;99.90
14529;DHT22;7351;51.194;4.098;2022-10-26T00:28:57;14.70;99.90
14529;DHT22;7351;51.194;4.098;2022-10-26T00:31:25;14.70;99.90
14529;DHT22;7351;51.194;4.098;2022-10-26T00:33:52;14.70;99.90
14529;DHT22;7351;51.194;4.098;2022-10-26T00:36:19;14.80;99.90
14529;DHT22;7351;51.194;4.098;2022-10-26T00:38:48;14.80;99.90
14529;DHT22;7351;51.194;4.098;2022-10-26T00:41:17;14.80;99.90
14529;DHT22;7351;51.194;4.098;2022-10-26T00:43:44;14.80;99.90
14529;DHT22;7351;51.194;4.098;2022-10-26T00:46:14;14.90;99.90
14529;DHT22;7351;51.194;4.098;2022-10-26T00:48:45;14.90;99.90
14529;DHT22;7351;51.194;4.098;2022-10-26T00:51:16;14.90;99.90
14529;DHT22;7351;51.194;4.098;2022-10-26T00:53:45;15.00;99.90
14529;DHT22;7351;51.194;4.098;2022-10-26T00:56:12;15.10;99.90
14529;DHT22;7351;51.194;4.098;2022-10-26T00:58:42;15.00;99.90
14529;DHT22;7351;51.194;4.098;2022-10-26T01:01:10;15.00;99.90
14529;DHT22;7351;51.194;4.098;2022-10-26T01:03:38;15.00;99.90
14529;DHT22;7351;51.194;4.098;2022-10-26T01:06:05;15.00;99.90
14529;DHT22;7351;51.194;4.098;2022-10-26T01:08:34;15.00;99.90
14529;DHT22;7351;51.194;4.098;2022-10-26T01:11:02;15.00;99.90
14529;DHT22;7351;51.194;4.098;2022-10-26T01:13:32;15.00;99.90
14529;DHT22;7351;51.194;4.098;2022-10-26T01:16:18;15.00;99.90
14529;DHT22;7351;51.194;4.098;2022-10-26T01:19:05;14.80;99.90
14529;DHT22;7351;51.194;4.098;2022-10-26T01:21:43;14.80;99.90
14529;DHT22;7351;51.194;4.098;2022-10-26T01:24:44;14.80;99.90
14529;DHT22;7351;51.194;4.098;2022-10-26T01:27:21;14.80;99.90
14529;DHT22;7351;51.194;4.098;2022-10-26T01:30:19;14.80;99.90
14529;DHT22;7351;51.194;4.098;2022-10-26T01:32:54;14.70;99.90
14529;DHT22;7351;51.194;4.098;2022-10-26T01:35:27;14.60;99.90
14529;DHT22;7351;51.194;4.098;2022-10-26T01:37:59;14.70;99.90
14529;DHT22;7351;51.194;4.098;2022-10-26T01:40:30;14.60;99.90
14529;DHT22;7351;51.194;4.098;2022-10-26T01:43:03;14.60;99.90
14529;DHT22;7351;51.194;4.098;2022-10-26T01:45:36;14.60;99.90
14529;DHT22;7351;51.194;4.098;2022-10-26T01:48:06;14.70;99.90
14529;DHT22;7351;51.194;4.098;2022-10-26T01:50:34;14.70;99.90
14529;DHT22;7351;51.194;4.098;2022-10-26T01:53:01;14.80;99.90
14529;DHT22;7351;51.194;4.098;2022-10-26T01:55:43;14.70;99.90
14529;DHT22;7351;51.194;4.098;2022-10-26T01:58:31;14.70;99.90
14529;DHT22;7351;51.194;4.098;2022-10-26T02:01:10;14.70;99.90
14529;DHT22;7351;51.194;4.098;2022-10-26T02:03:45;14.70;99.90
14529;DHT22;7351;51.194;4.098;2022-10-26T02:06:20;14.70;99.90
14529;DHT22;7351;51.194;4.098;2022-10-26T02:08:59;14.70;99.90
14529;DHT22;7351;51.194;4.098;2022-10-26T02:11:35;14.70;99.90
14529;DHT22;7351;51.194;4.098;2022-10-26T02:14:10;14.80;99.90
14529;DHT22;7351;51.194;4.098;2022-10-26T02:16:47;14.80;99.90
14529;DHT22;7351;51.194;4.098;2022-10-26T02:19:26;14.80;99.90
14529;DHT22;7351;51.194;4.098;2022-10-26T02:21:57;14.90;99.90
14529;DHT22;7351;51.194;4.098;2022-10-26T02:24:26;15.00;99.90
14529;DHT22;7351;51.194;4.098;2022-10-26T02:26:55;15.00;99.90
14529;DHT22;7351;51.194;4.098;2022-10-26T02:29:22;15.10;99.90
14529;DHT22;7351;51.194;4.098;2022-10-26T02:31:51;15.10;99.90
14529;DHT22;7351;51.194;4.098;2022-10-26T02:34:22;15.10;99.90
14529;DHT22;7351;51.194;4.098;2022-10-26T02:36:52;15.10;99.90
14529;DHT22;7351;51.194;4.098;2022-10-26T02:39:21;15.10;99.90
14529;DHT22;7351;51.194;4.098;2022-10-26T02:41:50;15.00;99.90
14529;DHT22;7351;51.194;4.098;2022-10-26T02:44:22;15.00;99.90
14529;DHT22;7351;51.194;4.098;2022-10-26T02:46:52;15.10;99.90
14529;DHT22;7351;51.194;4.098;2022-10-26T02:49:20;15.20;99.90
14529;DHT22;7351;51.194;4.098;2022-10-26T02:51:50;15.20;99.90
14529;DHT22;7351;51.194;4.098;2022-10-26T02:54:25;15.20;99.90
14529;DHT22;7351;51.194;4.098;2022-10-26T02:56:56;15.30;99.90
14529;DHT22;7351;51.194;4.098;2022-10-26T02:59:30;15.30;99.90
14529;DHT22;7351;51.194;4.098;2022-10-26T03:02:01;15.30;99.90
14529;DHT22;7351;51.194;4.098;2022-10-26T03:04:29;15.30;99.90
14529;DHT22;7351;51.194;4.098;2022-10-26T03:06:57;15.20;99.90
14529;DHT22;7351;51.194;4.098;2022-10-26T03:09:24;15.20;99.90
14529;DHT22;7351;51.194;4.098;2022-10-26T03:11:51;15.20;99.90
14529;DHT22;7351;51.194;4.098;2022-10-26T03:14:19;15.20;99.90
14529;DHT22;7351;51.194;4.098;2022-10-26T03:16:46;15.20;99.90
14529;DHT22;7351;51.194;4.098;2022-10-26T03:19:14;15.20;99.90
14529;DHT22;7351;51.194;4.098;2022-10-26T03:21:41;15.20;99.90
14529;DHT22;7351;51.194;4.098;2022-10-26T03:24:08;15.20;99.90
14529;DHT22;7351;51.194;4.098;2022-10-26T03:26:35;15.20;99.90
14529;DHT22;7351;51.194;4.098;2022-10-26T03:29:02;15.30;99.90
14529;DHT22;7351;51.194;4.098;2022-10-26T03:31:29;15.30;99.90
14529;DHT22;7351;51.194;4.098;2022-10-26T03:33:56;15.40;99.90
14529;DHT22;7351;51.194;4.098;2022-10-26T03:36:25;15.40;99.90
14529;DHT22;7351;51.194;4.098;2022-10-26T03:38:51;15.40;99.90
14529;DHT22;7351;51.194;4.098;2022-10-26T03:41:18;15.40;99.90
14529;DHT22;7351;51.194;4.098;2022-10-26T03:43:45;15.40;99.90
14529;DHT22;7351;51.194;4.098;2022-10-26T03:46:13;15.50;99.90
14529;DHT22;7351;51.194;4.098;2022-10-26T03:48:40;15.50;99.90
14529;DHT22;7351;51.194;4.098;2022-10-26T03:51:07;15.50;99.90
14529;DHT22;7351;51.194;4.098;2022-10-26T03:53:35;15.50;99.90
14529;DHT22;7351;51.194;4.098;2022-10-26T03:56:02;15.50;99.90
14529;DHT22;7351;51.194;4.098;2022-10-26T03:58:29;15.40;99.90
14529;DHT22;7351;51.194;4.098;2022-10-26T04:00:56;15.30;99.90
14529;DHT22;7351;51.194;4.098;2022-10-26T04:03:24;15.20;99.90
14529;DHT22;7351;51.194;4.098;2022-10-26T04:05:50;15.10;99.90
14529;DHT22;7351;51.194;4.098;2022-10-26T04:08:17;15.20;99.90
14529;DHT22;7351;51.194;4.098;2022-10-26T04:10:46;15.20;99.90
14529;DHT22;7351;51.194;4.098;2022-10-26T04:13:13;15.10;99.90
14529;DHT22;7351;51.194;4.098;2022-10-26T04:15:40;15.10;99.90
14529;DHT22;7351;51.194;4.098;2022-10-26T04:18:08;15.10;99.90
14529;DHT22;7351;51.194;4.098;2022-10-26T04:20:38;15.00;99.90
14529;DHT22;7351;51.194;4.098;2022-10-26T04:23:09;15.00;99.90
14529;DHT22;7351;51.194;4.098;2022-10-26T04:25:36;14.90;99.90
14529;DHT22;7351;51.194;4.098;2022-10-26T04:28:06;14.90;99.90
14529;DHT22;7351;51.194;4.098;2022-10-26T04:30:34;14.90;99.90
14529;DHT22;7351;51.194;4.098;2022-10-26T04:33:01;14.90;99.90
14529;DHT22;7351;51.194;4.098;2022-10-26T04:35:28;14.90;99.90
14529;DHT22;7351;51.194;4.098;2022-10-26T04:37:56;14.90;99.90
14529;DHT22;7351;51.194;4.098;2022-10-26T04:40:24;14.90;99.90
14529;DHT22;7351;51.194;4.098;2022-10-26T04:42:51;15.10;99.90
14529;DHT22;7351;51.194;4.098;2022-10-26T04:45:19;15.00;99.90
14529;DHT22;7351;51.194;4.098;2022-10-26T04:47:46;15.00;99.90
14529;DHT22;7351;51.194;4.098;2022-10-26T04:50:13;15.10;99.90
14529;DHT22;7351;51.194;4.098;2022-10-26T04:52:40;14.90;99.90
14529;DHT22;7351;51.194;4.098;2022-10-26T04:55:07;14.90;99.90
14529;DHT22;7351;51.194;4.098;2022-10-26T04:57:35;15.00;99.90
14529;DHT22;7351;51.194;4.098;2022-10-26T05:00:03;15.10;99.90
14529;DHT22;7351;51.194;4.098;2022-10-26T05:02:32;15.20;99.90
14529;DHT22;7351;51.194;4.098;2022-10-26T05:04:59;15.30;99.90
14529;DHT22;7351;51.194;4.098;2022-10-26T05:07:26;15.40;99.90
14529;DHT22;7351;51.194;4.098;2022-10-26T05:09:53;15.40;99.90
14529;DHT22;7351;51.194;4.098;2022-10-26T05:12:20;15.40;99.90
14529;DHT22;7351;51.194;4.098;2022-10-26T05:14:47;15.50;99.90
14529;DHT22;7351;51.194;4.098;2022-10-26T05:17:14;15.50;99.90
14529;DHT22;7351;51.194;4.098;2022-10-26T05:19:42;15.60;99.90
14529;DHT22;7351;51.194;4.098;2022-10-26T05:22:09;15.50;99.90
14529;DHT22;7351;51.194;4.098;2022-10-26T05:24:36;15.40;99.90
14529;DHT22;7351;51.194;4.098;2022-10-26T05:27:03;15.40;99.90
14529;DHT22;7351;51.194;4.098;2022-10-26T05:29:30;15.40;99.90
14529;DHT22;7351;51.194;4.098;2022-10-26T05:31:57;15.40;99.90
14529;DHT22;7351;51.194;4.098;2022-10-26T05:34:24;15.40;99.90
14529;DHT22;7351;51.194;4.098;2022-10-26T05:36:53;15.50;99.90
14529;DHT22;7351;51.194;4.098;2022-10-26T05:39:20;15.50;99.90
14529;DHT22;7351;51.194;4.098;2022-10-26T05:41:47;15.60;99.90
14529;DHT22;7351;51.194;4.098;2022-10-26T05:44:14;15.70;99.90
14529;DHT22;7351;51.194;4.098;2022-10-26T05:46:41;15.70;99.90
14529;DHT22;7351;51.194;4.098;2022-10-26T05:49:08;15.70;99.90
14529;DHT22;7351;51.194;4.098;2022-10-26T05:51:35;15.80;99.90
14529;DHT22;7351;51.194;4.098;2022-10-26T05:54:05;15.80;99.90
14529;DHT22;7351;51.194;4.098;2022-10-26T05:56:34;15.80;99.90
14529;DHT22;7351;51.194;4.098;2022-10-26T05:59:03;15.70;99.90
14529;DHT22;7351;51.194;4.098;2022-10-26T06:01:41;15.70;99.90
14529;DHT22;7351;51.194;4.098;2022-10-26T06:04:21;15.70;99.90
14529;DHT22;7351;51.194;4.098;2022-10-26T06:06:52;15.80;99.90
14529;DHT22;7351;51.194;4.098;2022-10-26T06:09:22;15.80;99.90
14529;DHT22;7351;51.194;4.098;2022-10-26T06:11:49;15.80;99.90
14529;DHT22;7351;51.194;4.098;2022-10-26T06:14:17;15.70;99.90
14529;DHT22;7351;51.194;4.098;2022-10-26T06:16:58;15.70;99.90
14529;DHT22;7351;51.194;4.098;2022-10-26T06:19:41;15.70;99.90
14529;DHT22;7351;51.194;4.098;2022-10-26T06:22:22;15.50;99.90
14529;DHT22;7351;51.194;4.098;2022-10-26T06:25:02;15.50;99.90
14529;DHT22;7351;51.194;4.098;2022-10-26T06:27:35;15.50;99.90
14529;DHT22;7351;51.194;4.098;2022-10-26T06:30:06;15.50;99.90
14529;DHT22;7351;51.194;4.098;2022-10-26T06:32:35;15.50;99.90
14529;DHT22;7351;51.194;4.098;2022-10-26T06:35:12;15.60;99.90
14529;DHT22;7351;51.194;4.098;2022-10-26T06:37:42;15.50;99.90
14529;DHT22;7351;51.194;4.098;2022-10-26T06:40:13;15.50;99.90
14529;DHT22;7351;51.194;4.098;2022-10-26T06:42:41;15.50;99.90
14529;DHT22;7351;51.194;4.098;2022-10-26T06:45:11;15.50;99.90
14529;DHT22;7351;51.194;4.098;2022-10-26T06:47:44;15.50;99.90
14529;DHT22;7351;51.194;4.098;2022-10-26T06:50:28;15.60;99.90
14529;DHT22;7351;51.194;4.098;2022-10-26T06:53:04;15.70;99.90
14529;DHT22;7351;51.194;4.098;2022-10-26T06:55:39;15.60;99.90
14529;DHT22;7351;51.194;4.098;2022-10-26T06:58:10;15.70;99.90
14529;DHT22;7351;51.194;4.098;2022-10-26T07:00:39;15.70;99.90
14529;DHT22;7351;51.194;4.098;2022-10-26T07:03:07;15.70;99.90
14529;DHT22;7351;51.194;4.098;2022-10-26T07:05:34;15.70;99.90
14529;DHT22;7351;51.194;4.098;2022-10-26T07:08:04;15.70;99.90
14529;DHT22;7351;51.194;4.098;2022-10-26T07:10:31;15.70;99.90
14529;DHT22;7351;51.194;4.098;2022-10-26T07:13:01;15.60;99.90
14529;DHT22;7351;51.194;4.098;2022-10-26T07:15:28;15.60;99.90
14529;DHT22;7351;51.194;4.098;2022-10-26T07:17:55;15.60;99.90
14529;DHT22;7351;51.194;4.098;2022-10-26T07:20:22;15.60;99.90
14529;DHT22;7351;51.194;4.098;2022-10-26T07:22:52;15.60;99.90
14529;DHT22;7351;51.194;4.098;2022-10-26T07:25:19;15.70;99.90
14529;DHT22;7351;51.194;4.098;2022-10-26T07:27:46;15.70;99.90
14529;DHT22;7351;51.194;4.098;2022-10-26T07:30:15;15.70;99.90
14529;DHT22;7351;51.194;4.098;2022-10-26T07:32:42;15.80;99.90
14529;DHT22;7351;51.194;4.098;2022-10-26T07:35:09;15.80;99.90
14529;DHT22;7351;51.194;4.098;2022-10-26T07:37:36;15.90;99.90
14529;DHT22;7351;51.194;4.098;2022-10-26T07:40:05;16.00;99.90
14529;DHT22;7351;51.194;4.098;2022-10-26T07:42:32;15.90;99.90
14529;DHT22;7351;51.194;4.098;2022-10-26T07:44:59;16.00;99.90
14529;DHT22;7351;51.194;4.098;2022-10-26T07:47:27;16.10;99.90
14529;DHT22;7351;51.194;4.098;2022-10-26T07:49:54;16.20;99.90
14529;DHT22;7351;51.194;4.098;2022-10-26T07:52:21;16.20;99.90
14529;DHT22;7351;51.194;4.098;2022-10-26T07:54:49;16.30;99.90
14529;DHT22;7351;51.194;4.098;2022-10-26T07:57:17;16.40;99.90
14529;DHT22;7351;51.194;4.098;2022-10-26T07:59:45;16.40;99.90
14529;DHT22;7351;51.194;4.098;2022-10-26T08:02:12;16.50;99.90
14529;DHT22;7351;51.194;4.098;2022-10-26T08:04:40;16.50;99.90
14529;DHT22;7351;51.194;4.098;2022-10-26T08:07:09;16.60;99.90
14529;DHT22;7351;51.194;4.098;2022-10-26T08:09:36;16.70;99.90
14529;DHT22;7351;51.194;4.098;2022-10-26T08:12:06;16.70;99.90
14529;DHT22;7351;51.194;4.098;2022-10-26T08:14:33;16.80;99.90
14529;DHT22;7351;51.194;4.098;2022-10-26T08:17:00;16.80;99.90
14529;DHT22;7351;51.194;4.098;2022-10-26T08:19:27;16.90;99.90
14529;DHT22;7351;51.194;4.098;2022-10-26T08:21:56;17.00;99.90
14529;DHT22;7351;51.194;4.098;2022-10-26T08:24:23;17.10;99.90
14529;DHT22;7351;51.194;4.098;2022-10-26T08:26:50;17.10;99.90
14529;DHT22;7351;51.194;4.098;2022-10-26T08:29:17;17.20;99.90
14529;DHT22;7351;51.194;4.098;2022-10-26T08:31:46;17.20;99.90
14529;DHT22;7351;51.194;4.098;2022-10-26T08:34:13;17.20;99.90
14529;DHT22;7351;51.194;4.098;2022-10-26T08:36:40;17.20;99.90
14529;DHT22;7351;51.194;4.098;2022-10-26T08:39:08;17.30;99.90
14529;DHT22;7351;51.194;4.098;2022-10-26T08:41:37;17.30;99.90
14529;DHT22;7351;51.194;4.098;2022-10-26T08:44:18;17.40;99.90
14529;DHT22;7351;51.194;4.098;2022-10-26T08:46:50;17.40;99.90
14529;DHT22;7351;51.194;4.098;2022-10-26T08:49:22;17.50;99.90
14529;DHT22;7351;51.194;4.098;2022-10-26T08:51:53;17.60;99.90
14529;DHT22;7351;51.194;4.098;2022-10-26T08:54:31;17.60;99.90
14529;DHT22;7351;51.194;4.098;2022-10-26T08:57:03;17.60;99.90
14529;DHT22;7351;51.194;4.098;2022-10-26T08:59:34;17.60;99.90
14529;DHT22;7351;51.194;4.098;2022-10-26T09:02:11;17.60;99.90
14529;DHT22;7351;51.194;4.098;2022-10-26T09:04:38;17.60;99.90
14529;DHT22;7351;51.194;4.098;2022-10-26T09:07:11;17.70;99.90
14529;DHT22;7351;51.194;4.098;2022-10-26T09:09:48;17.70;99.90
14529;DHT22;7351;51.194;4.098;2022-10-26T09:12:22;17.70;99.90
14529;DHT22;7351;51.194;4.098;2022-10-26T09:15:02;17.90;99.90
14529;DHT22;7351;51.194;4.098;2022-10-26T09:17:39;18.00;99.90
14529;DHT22;7351;51.194;4.098;2022-10-26T09:20:32;18.10;99.90
14529;DHT22;7351;51.194;4.098;2022-10-26T09:23:11;18.20;99.90
14529;DHT22;7351;51.194;4.098;2022-10-26T09:25:46;18.30;99.90
14529;DHT22;7351;51.194;4.098;2022-10-26T09:28:17;18.40;99.90
14529;DHT22;7351;51.194;4.098;2022-10-26T09:30:45;18.50;99.90
14529;DHT22;7351;51.194;4.098;2022-10-26T09:33:16;18.50;99.90
14529;DHT22;7351;51.194;4.098;2022-10-26T09:35:46;18.50;99.90
14529;DHT22;7351;51.194;4.098;2022-10-26T09:38:19;18.60;99.90
14529;DHT22;7351;51.194;4.098;2022-10-26T09:40:55;18.60;99.90
14529;DHT22;7351;51.194;4.098;2022-10-26T09:43:27;18.60;99.90
14529;DHT22;7351;51.194;4.098;2022-10-26T09:45:55;18.60;99.90
14529;DHT22;7351;51.194;4.098;2022-10-26T09:48:28;18.60;99.90
14529;DHT22;7351;51.194;4.098;2022-10-26T09:50:57;18.60;99.90
14529;DHT22;7351;51.194;4.098;2022-10-26T09:53:25;18.60;99.90
14529;DHT22;7351;51.194;4.098;2022-10-26T09:56:00;18.60;99.90
14529;DHT22;7351;51.194;4.098;2022-10-26T09:58:33;18.70;99.90
14529;DHT22;7351;51.194;4.098;2022-10-26T10:01:01;18.70;99.90
14529;DHT22;7351;51.194;4.098;2022-10-26T10:03:29;18.80;99.90
14529;DHT22;7351;51.194;4.098;2022-10-26T10:06:14;18.80;99.90
14529;DHT22;7351;51.194;4.098;2022-10-26T10:08:42;18.80;99.90
14529;DHT22;7351;51.194;4.098;2022-10-26T10:11:13;18.70;99.90
14529;DHT22;7351;51.194;4.098;2022-10-26T10:13:42;18.80;99.90
14529;DHT22;7351;51.194;4.098;2022-10-26T10:16:19;18.90;99.90
14529;DHT22;7351;51.194;4.098;2022-10-26T10:18:53;18.90;99.90
14529;DHT22;7351;51.194;4.098;2022-10-26T10:21:20;18.90;99.90
14529;DHT22;7351;51.194;4.098;2022-10-26T10:23:49;19.00;99.90
14529;DHT22;7351;51.194;4.098;2022-10-26T10:26:20;19.10;99.90
14529;DHT22;7351;51.194;4.098;2022-10-26T10:28:56;19.20;99.90
14529;DHT22;7351;51.194;4.098;2022-10-26T10:31:27;19.30;99.90
14529;DHT22;7351;51.194;4.098;2022-10-26T10:33:55;19.20;99.90
14529;DHT22;7351;51.194;4.098;2022-10-26T10:36:24;19.10;99.90
14529;DHT22;7351;51.194;4.098;2022-10-26T10:38:52;19.30;99.90
14529;DHT22;7351;51.194;4.098;2022-10-26T10:41:25;19.40;99.90
14529;DHT22;7351;51.194;4.098;2022-10-26T10:44:00;19.40;99.90
14529;DHT22;7351;51.194;4.098;2022-10-26T10:46:28;19.50;99.90
14529;DHT22;7351;51.194;4.098;2022-10-26T10:49:01;19.50;99.90
14529;DHT22;7351;51.194;4.098;2022-10-26T10:51:33;19.60;99.90
14529;DHT22;7351;51.194;4.098;2022-10-26T10:54:02;19.60;99.90
14529;DHT22;7351;51.194;4.098;2022-10-26T10:56:39;19.70;99.90
14529;DHT22;7351;51.194;4.098;2022-10-26T11:02:20;19.70;99.90
14529;DHT22;7351;51.194;4.098;2022-10-26T11:05:03;19.70;99.90
14529;DHT22;7351;51.194;4.098;2022-10-26T11:07:40;19.60;99.90
14529;DHT22;7351;51.194;4.098;2022-10-26T11:10:12;19.70;99.90
14529;DHT22;7351;51.194;4.098;2022-10-26T11:12:46;19.80;99.90
14529;DHT22;7351;51.194;4.098;2022-10-26T11:15:17;19.90;99.90
14529;DHT22;7351;51.194;4.098;2022-10-26T11:17:51;19.90;99.90
14529;DHT22;7351;51.194;4.098;2022-10-26T11:20:24;19.90;99.90
14529;DHT22;7351;51.194;4.098;2022-10-26T11:23:01;19.90;99.90
14529;DHT22;7351;51.194;4.098;2022-10-26T11:25:32;19.90;99.90
14529;DHT22;7351;51.194;4.098;2022-10-26T11:28:09;20.00;99.90
14529;DHT22;7351;51.194;4.098;2022-10-26T11:30:40;20.00;99.90
14529;DHT22;7351;51.194;4.098;2022-10-26T11:33:14;20.00;99.90
14529;DHT22;7351;51.194;4.098;2022-10-26T11:35:46;20.00;99.90
14529;DHT22;7351;51.194;4.098;2022-10-26T11:38:22;20.10;99.90
14529;DHT22;7351;51.194;4.098;2022-10-26T11:40:54;20.00;99.90
14529;DHT22;7351;51.194;4.098;2022-10-26T11:43:27;19.90;99.90
14529;DHT22;7351;51.194;4.098;2022-10-26T11:46:02;19.90;99.90
14529;DHT22;7351;51.194;4.098;2022-10-26T11:48:35;20.00;99.90
14529;DHT22;7351;51.194;4.098;2022-10-26T11:51:04;20.00;99.90
14529;DHT22;7351;51.194;4.098;2022-10-26T11:53:39;20.10;99.90
14529;DHT22;7351;51.194;4.098;2022-10-26T11:56:11;20.20;99.90
14529;DHT22;7351;51.194;4.098;2022-10-26T11:58:40;20.10;99.90
14529;DHT22;7351;51.194;4.098;2022-10-26T12:01:13;20.00;99.90
14529;DHT22;7351;51.194;4.098;2022-10-26T12:03:43;20.10;99.90
14529;DHT22;7351;51.194;4.098;2022-10-26T12:06:13;20.10;99.90
14529;DHT22;7351;51.194;4.098;2022-10-26T12:08:46;20.20;99.90
14529;DHT22;7351;51.194;4.098;2022-10-26T12:11:25;20.20;99.90
14529;DHT22;7351;51.194;4.098;2022-10-26T12:14:02;20.20;99.90
14529;DHT22;7351;51.194;4.098;2022-10-26T12:16:39;20.20;99.90
14529;DHT22;7351;51.194;4.098;2022-10-26T12:19:11;20.30;99.90
14529;DHT22;7351;51.194;4.098;2022-10-26T12:21:41;20.20;99.90
14529;DHT22;7351;51.194;4.098;2022-10-26T12:24:25;20.30;99.90
14529;DHT22;7351;51.194;4.098;2022-10-26T12:26:54;20.30;99.90
14529;DHT22;7351;51.194;4.098;2022-10-26T12:29:38;20.30;99.90
14529;DHT22;7351;51.194;4.098;2022-10-26T12:35:30;20.30;99.90
14529;DHT22;7351;51.194;4.098;2022-10-26T12:37:58;20.40;99.90
14529;DHT22;7351;51.194;4.098;2022-10-26T12:40:39;20.40;99.90
14529;DHT22;7351;51.194;4.098;2022-10-26T12:43:35;20.50;99.90
14529;DHT22;7351;51.194;4.098;2022-10-26T12:55:38;20.50;99.90
14529;DHT22;7351;51.194;4.098;2022-10-26T12:58:44;20.50;99.90
14529;DHT22;7351;51.194;4.098;2022-10-26T13:01:38;20.50;99.90
14529;DHT22;7351;51.194;4.098;2022-10-26T13:04:23;20.50;99.90
14529;DHT22;7351;51.194;4.098;2022-10-26T13:07:17;20.50;99.90
14529;DHT22;7351;51.194;4.098;2022-10-26T13:09:53;20.60;99.90
14529;DHT22;7351;51.194;4.098;2022-10-26T13:12:21;20.60;99.90
14529;DHT22;7351;51.194;4.098;2022-10-26T13:15:00;20.60;99.90
14529;DHT22;7351;51.194;4.098;2022-10-26T13:17:29;20.60;99.90
14529;DHT22;7351;51.194;4.098;2022-10-26T13:19:58;20.70;99.90
14529;DHT22;7351;51.194;4.098;2022-10-26T13:22:27;20.60;99.90
14529;DHT22;7351;51.194;4.098;2022-10-26T13:24:58;20.60;99.90
14529;DHT22;7351;51.194;4.098;2022-10-26T13:27:42;20.70;99.90
14529;DHT22;7351;51.194;4.098;2022-10-26T13:30:19;20.70;99.90
14529;DHT22;7351;51.194;4.098;2022-10-26T13:32:52;20.60;99.90
14529;DHT22;7351;51.194;4.098;2022-10-26T13:35:21;20.60;99.90
14529;DHT22;7351;51.194;4.098;2022-10-26T13:37:50;20.50;99.90
14529;DHT22;7351;51.194;4.098;2022-10-26T13:40:22;20.60;99.90
14529;DHT22;7351;51.194;4.098;2022-10-26T13:42:53;20.50;99.90
14529;DHT22;7351;51.194;4.098;2022-10-26T13:45:23;20.60;99.90
14529;DHT22;7351;51.194;4.098;2022-10-26T13:47:55;20.50;99.90
14529;DHT22;7351;51.194;4.098;2022-10-26T13:50:27;20.60;99.90
14529;DHT22;7351;51.194;4.098;2022-10-26T13:52:57;20.50;99.90
14529;DHT22;7351;51.194;4.098;2022-10-26T13:55:32;20.50;99.90
14529;DHT22;7351;51.194;4.098;2022-10-26T13:58:16;20.60;99.90
14529;DHT22;7351;51.194;4.098;2022-10-26T14:01:10;20.60;99.90
14529;DHT22;7351;51.194;4.098;2022-10-26T14:03:39;20.60;99.90
14529;DHT22;7351;51.194;4.098;2022-10-26T14:06:14;20.70;99.90
14529;DHT22;7351;51.194;4.098;2022-10-26T14:08:42;20.80;99.90
14529;DHT22;7351;51.194;4.098;2022-10-26T14:11:15;20.80;99.90
14529;DHT22;7351;51.194;4.098;2022-10-26T14:13:45;21.00;99.90
14529;DHT22;7351;51.194;4.098;2022-10-26T14:16:14;21.00;99.90
14529;DHT22;7351;51.194;4.098;2022-10-26T14:18:44;21.00;99.90
14529;DHT22;7351;51.194;4.098;2022-10-26T14:21:14;21.10;99.90
14529;DHT22;7351;51.194;4.098;2022-10-26T14:23:47;21.00;99.90
14529;DHT22;7351;51.194;4.098;2022-10-26T14:26:21;21.00;99.90
14529;DHT22;7351;51.194;4.098;2022-10-26T14:28:51;21.00;99.90
14529;DHT22;7351;51.194;4.098;2022-10-26T14:31:27;21.00;99.90
14529;DHT22;7351;51.194;4.098;2022-10-26T14:33:55;20.90;99.90
14529;DHT22;7351;51.194;4.098;2022-10-26T14:36:26;21.00;99.90
14529;DHT22;7351;51.194;4.098;2022-10-26T14:38:58;21.00;99.90
14529;DHT22;7351;51.194;4.098;2022-10-26T14:41:28;21.10;99.90
14529;DHT22;7351;51.194;4.098;2022-10-26T14:43:56;21.00;99.90
14529;DHT22;7351;51.194;4.098;2022-10-26T14:46:25;21.10;99.90
14529;DHT22;7351;51.194;4.098;2022-10-26T14:48:54;21.10;99.90
14529;DHT22;7351;51.194;4.098;2022-10-26T14:51:26;21.20;99.90
14529;DHT22;7351;51.194;4.098;2022-10-26T14:53:55;21.40;99.90
14529;DHT22;7351;51.194;4.098;2022-10-26T14:56:25;21.50;99.90
14529;DHT22;7351;51.194;4.098;2022-10-26T14:58:55;21.50;99.90
14529;DHT22;7351;51.194;4.098;2022-10-26T15:01:31;21.50;99.90
14529;DHT22;7351;51.194;4.098;2022-10-26T15:04:00;21.50;99.90
14529;DHT22;7351;51.194;4.098;2022-10-26T15:06:39;21.50;99.90
14529;DHT22;7351;51.194;4.098;2022-10-26T15:09:31;21.50;99.90
14529;DHT22;7351;51.194;4.098;2022-10-26T15:11:59;21.50;99.90
14529;DHT22;7351;51.194;4.098;2022-10-26T15:14:30;21.50;99.90
14529;DHT22;7351;51.194;4.098;2022-10-26T15:16:58;21.40;99.90
14529;DHT22;7351;51.194;4.098;2022-10-26T15:19:25;21.30;99.90
14529;DHT22;7351;51.194;4.098;2022-10-26T15:21:53;21.20;99.90
14529;DHT22;7351;51.194;4.098;2022-10-26T15:24:28;21.20;99.90
14529;DHT22;7351;51.194;4.098;2022-10-26T15:26:56;21.20;99.90
14529;DHT22;7351;51.194;4.098;2022-10-26T15:29:39;21.10;99.90
14529;DHT22;7351;51.194;4.098;2022-10-26T15:32:20;20.90;99.90
14529;DHT22;7351;51.194;4.098;2022-10-26T15:34:48;20.80;99.90
14529;DHT22;7351;51.194;4.098;2022-10-26T15:37:16;20.70;99.90
14529;DHT22;7351;51.194;4.098;2022-10-26T15:39:43;20.70;99.90
14529;DHT22;7351;51.194;4.098;2022-10-26T15:42:12;20.60;99.90
14529;DHT22;7351;51.194;4.098;2022-10-26T15:44:40;20.70;99.90
14529;DHT22;7351;51.194;4.098;2022-10-26T15:49:41;20.70;99.90
14529;DHT22;7351;51.194;4.098;2022-10-26T15:52:08;20.70;99.90
14529;DHT22;7351;51.194;4.098;2022-10-26T15:54:35;20.70;99.90
14529;DHT22;7351;51.194;4.098;2022-10-26T15:57:02;20.70;99.90
14529;DHT22;7351;51.194;4.098;2022-10-26T15:59:30;20.70;99.90
14529;DHT22;7351;51.194;4.098;2022-10-26T16:01:58;20.70;99.90
14529;DHT22;7351;51.194;4.098;2022-10-26T16:04:25;20.60;99.90
14529;DHT22;7351;51.194;4.098;2022-10-26T16:06:52;20.50;99.90
14529;DHT22;7351;51.194;4.098;2022-10-26T16:09:23;20.50;99.90
14529;DHT22;7351;51.194;4.098;2022-10-26T16:11:50;20.50;99.90
14529;DHT22;7351;51.194;4.098;2022-10-26T16:14:17;20.40;99.90
14529;DHT22;7351;51.194;4.098;2022-10-26T16:16:44;20.50;99.90
14529;DHT22;7351;51.194;4.098;2022-10-26T16:19:12;20.50;99.90
14529;DHT22;7351;51.194;4.098;2022-10-26T16:21:39;20.40;99.90
14529;DHT22;7351;51.194;4.098;2022-10-26T16:24:08;20.40;99.90
14529;DHT22;7351;51.194;4.098;2022-10-26T16:26:35;20.40;99.90
14529;DHT22;7351;51.194;4.098;2022-10-26T16:29:02;20.40;99.90